This is the latest recevied weather packets stored in our database for station/object DM1RG-6. If no packets are shown the sender has not sent any weather packets the latest 10 day(s).
| Time | Temp. | Humidity | Pressure | Rain* | Wind** | Luminosity | Snow |
|---|---|---|---|---|---|---|---|
| 1777694404 | 4.44° C | 95% | 1022.9 hPa | 0 mm | - | - | - |
| 1777694043 | 4.44° C | 95% | 1023.1 hPa | 0 mm | - | - | - |
| 1777693684 | 4.44° C | 95% | 1023.2 hPa | 0 mm | - | - | - |
| 1777693324 | 4.44° C | 95% | 1023.2 hPa | 0 mm | - | - | - |
| 1777692964 | 4.44° C | 95% | 1023.2 hPa | 0 mm | - | - | - |
| 1777692603 | 4.44° C | 95% | 1023.2 hPa | 0 mm | - | - | - |
| 1777692243 | 4.44° C | 94% | 1023.1 hPa | 0 mm | - | - | - |
| 1777691884 | 4.44° C | 94% | 1023.2 hPa | 0 mm | - | - | - |
| 1777691523 | 4.44° C | 94% | 1023.3 hPa | 0 mm | - | - | - |
| 1777691164 | 4.44° C | 94% | 1023.4 hPa | 0 mm | - | - | - |
| 1777690803 | 4.44° C | 94% | 1023.2 hPa | 0 mm | - | - | - |
| 1777690443 | 5° C | 93% | 1023.3 hPa | 0 mm | - | - | - |
| 1777690083 | 5° C | 93% | 1023.2 hPa | 0 mm | - | - | - |
| 1777689724 | 4.44° C | 93% | 1023.5 hPa | 0 mm | - | - | - |
| 1777689363 | 4.44° C | 92% | 1023.5 hPa | 0 mm | - | - | - |
| 1777689003 | 5° C | 92% | 1023.1 hPa | 0 mm | - | - | - |
| 1777688643 | 4.44° C | 92% | 1023.3 hPa | 0 mm | - | - | - |
| 1777673883 | 8.33° C | 83% | 1024.5 hPa | 0 mm | - | - | - |
| 1777673523 | 8.33° C | 83% | 1024.5 hPa | 0 mm | - | - | - |
| 1777671363 | 9.44° C | 76% | 1024.5 hPa | 0 mm | - | - | - |
| 1777669563 | 10.56° C | 72% | 1024.8 hPa | 0 mm | - | - | - |
| 1777667763 | 11.11° C | 69% | 1024.6 hPa | 0 mm | - | - | - |
| 1777667404 | 11.67° C | 68% | 1024.7 hPa | 0 mm | - | - | - |
| 1777666683 | 11.67° C | 70% | 1024.7 hPa | 0 mm | - | - | - |
| 1777666324 | 12.22° C | 71% | 1024.9 hPa | 0 mm | - | - | - |
* Rain latest hour (hover to see other rain measurements)
** Current wind speed in m/s (hover to see current wind gust speed)